createdAt,value
2019-03-06T00:02:13.828Z,95076.94
2019-03-06T00:04:43.531Z,95073.09
2019-03-06T00:07:13.131Z,95075.94
2019-03-06T00:09:42.888Z,95078.47
2019-03-06T00:12:15.454Z,95073.03
2019-03-06T00:14:45.167Z,95066.48
2019-03-06T00:17:14.931Z,95063.38
2019-03-06T00:19:44.615Z,95067.09
2019-03-06T00:22:14.431Z,95072.01
2019-03-06T00:24:44.177Z,95071.13
2019-03-06T00:27:13.784Z,95080.45
2019-03-06T00:29:43.567Z,95088.31
2019-03-06T00:32:13.141Z,95090.11
2019-03-06T00:34:42.924Z,95087.03
2019-03-06T00:37:13.691Z,95074.02
2019-03-06T00:39:54.310Z,95076.70
2019-03-06T00:42:23.977Z,95055.31
2019-03-06T00:44:53.509Z,95060.39
2019-03-06T00:47:23.282Z,95058.80
2019-03-06T00:49:53.009Z,95060.27
2019-03-06T00:52:22.716Z,95060.88
2019-03-06T00:54:52.386Z,95071.31
2019-03-06T00:57:21.924Z,95058.38
2019-03-06T00:59:51.764Z,95061.09
2019-03-06T01:02:22.745Z,95054.94
2019-03-06T01:04:54.811Z,95051.45
2019-03-06T01:07:24.420Z,95052.03
2019-03-06T01:09:54.306Z,95061.28
2019-03-06T01:12:23.863Z,95053.84
2019-03-06T01:14:53.599Z,95064.08
2019-03-06T01:17:23.180Z,95065.38
2019-03-06T01:19:52.843Z,95055.42
2019-03-06T01:22:22.758Z,95059.20
2019-03-06T01:24:52.404Z,95065.16
2019-03-06T01:27:22.086Z,95060.19
2019-03-06T01:29:51.752Z,95052.34
2019-03-06T01:32:21.440Z,95053.05
2019-03-06T01:35:08.537Z,95055.52
2019-03-06T01:37:56.066Z,95048.08
2019-03-06T01:40:36.514Z,95047.45
2019-03-06T01:43:14.017Z,95046.16
2019-03-06T01:45:43.540Z,95043.89
2019-03-06T01:48:13.412Z,95037.14
2019-03-06T01:50:45.511Z,95039.73
2019-03-06T01:53:15.268Z,95036.73
2019-03-06T01:55:44.704Z,95034.27
2019-03-06T01:58:14.344Z,95039.33
2019-03-06T02:00:44.390Z,95033.94
2019-03-06T02:03:14.245Z,95046.48
2019-03-06T02:05:43.906Z,95041.31
2019-03-06T02:08:14.003Z,95045.25
2019-03-06T02:10:43.576Z,95041.24
2019-03-06T02:13:13.553Z,95044.15
2019-03-06T02:15:43.376Z,95046.32
2019-03-06T02:18:13.064Z,95032.69
2019-03-06T02:20:42.591Z,95032.69
2019-03-06T02:23:12.473Z,95041.52
2019-03-06T02:25:42.194Z,95039.97
2019-03-06T02:28:11.972Z,95039.73
2019-03-06T02:30:41.633Z,95035.18
2019-03-06T02:33:11.517Z,95042.17
2019-03-06T02:35:41.482Z,95044.19
2019-03-06T02:38:11.068Z,95045.36
2019-03-06T02:40:40.762Z,95051.13
2019-03-06T02:43:10.537Z,95043.51
2019-03-06T02:45:42.214Z,95042.00
2019-03-06T02:48:11.632Z,95047.37
2019-03-06T02:50:41.342Z,95048.67
2019-03-06T02:53:10.958Z,95049.48
2019-03-06T02:55:40.680Z,95060.38
2019-03-06T02:58:19.302Z,95060.11
2019-03-06T03:01:11.121Z,95059.09
2019-03-06T03:04:08.768Z,95063.80
2019-03-06T03:06:45.039Z,95062.37
2019-03-06T03:09:20.826Z,95069.52
2019-03-06T03:11:50.441Z,95069.52
2019-03-06T03:14:20.190Z,95078.55
2019-03-06T03:16:49.849Z,95078.84
2019-03-06T03:19:19.538Z,95068.55
2019-03-06T03:21:49.326Z,95075.86
2019-03-06T03:24:19.196Z,95089.57
2019-03-06T03:26:48.664Z,95074.53
2019-03-06T03:29:18.393Z,95079.32
2019-03-06T03:31:47.998Z,95088.09
2019-03-06T03:34:20.106Z,95083.25
2019-03-06T03:36:49.967Z,95074.70
2019-03-06T03:39:19.662Z,95074.70
2019-03-06T03:41:49.224Z,95083.51
2019-03-06T03:44:18.809Z,95085.32
2019-03-06T03:46:48.465Z,95087.13
2019-03-06T03:49:18.245Z,95086.75
2019-03-06T03:51:47.818Z,95080.47
2019-03-06T03:54:17.483Z,95080.98
2019-03-06T03:56:47.220Z,95078.22
2019-03-06T03:59:16.799Z,95078.22
2019-03-06T04:01:46.725Z,95090.22
2019-03-06T04:04:16.151Z,95082.89
2019-03-06T04:06:46.212Z,95082.89
2019-03-06T04:09:18.025Z,95088.21
2019-03-06T04:11:47.593Z,95088.21
2019-03-06T04:14:17.460Z,95081.77
2019-03-06T04:16:47.171Z,95085.02
2019-03-06T04:19:16.817Z,95091.77
2019-03-06T04:21:46.417Z,95084.73
2019-03-06T04:24:16.035Z,95082.04
2019-03-06T04:26:45.872Z,95075.98
2019-03-06T04:29:15.565Z,95085.02
2019-03-06T04:31:45.374Z,95089.84
2019-03-06T04:34:15.001Z,95083.97
2019-03-06T04:36:46.302Z,95083.76
2019-03-06T04:39:15.815Z,95090.61
2019-03-06T04:41:45.531Z,95099.46
2019-03-06T04:44:15.307Z,95099.46
2019-03-06T04:46:44.989Z,95122.96
2019-03-06T04:49:14.672Z,95121.22
2019-03-06T04:51:44.219Z,95125.68
2019-03-06T04:54:13.875Z,95145.58
2019-03-06T04:56:43.582Z,95150.89
2019-03-06T04:59:13.159Z,95135.41
2019-03-06T05:01:43.020Z,95154.52
2019-03-06T05:04:12.711Z,95147.30
2019-03-06T05:06:42.315Z,95155.66
2019-03-06T05:09:12.085Z,95170.07
2019-03-06T05:11:41.658Z,95160.97
2019-03-06T05:14:11.522Z,95171.02
2019-03-06T05:17:02.583Z,95162.16
2019-03-06T05:19:32.214Z,95162.27
2019-03-06T05:22:04.305Z,95162.27
2019-03-06T05:24:34.033Z,95170.16
2019-03-06T05:27:03.745Z,95167.24
2019-03-06T05:29:33.317Z,95170.08
2019-03-06T05:32:30.686Z,95173.80
2019-03-06T05:35:12.181Z,95173.93
2019-03-06T05:38:06.259Z,95172.81
2019-03-06T05:40:36.002Z,95171.52
2019-03-06T05:43:05.875Z,95153.27
2019-03-06T05:45:35.746Z,95169.19
2019-03-06T05:48:05.645Z,95174.39
2019-03-06T05:50:35.384Z,95189.89
2019-03-06T05:53:05.032Z,95189.89
2019-03-06T05:55:34.715Z,95193.36
2019-03-06T05:58:04.714Z,95188.32
2019-03-06T06:00:34.485Z,95186.56
2019-03-06T06:03:04.156Z,95198.42
2019-03-06T06:05:33.743Z,95197.84
2019-03-06T06:08:03.505Z,95201.98
2019-03-06T06:10:33.395Z,95194.96
2019-03-06T06:13:02.992Z,95196.56
2019-03-06T06:15:32.790Z,95199.56
2019-03-06T06:18:02.392Z,95203.34
2019-03-06T06:20:32.253Z,95198.97
2019-03-06T06:23:17.317Z,95202.25
2019-03-06T06:25:46.910Z,95210.91
2019-03-06T06:28:16.638Z,95208.03
2019-03-06T06:30:46.355Z,95213.78
2019-03-06T06:33:16.007Z,95210.80
2019-03-06T06:35:45.632Z,95222.34
2019-03-06T06:38:15.058Z,95214.58
2019-03-06T06:40:44.797Z,95213.38
2019-03-06T06:43:14.361Z,95221.56
2019-03-06T06:45:44.127Z,95228.81
2019-03-06T06:48:18.429Z,95228.03
2019-03-06T06:51:01.531Z,95238.77
2019-03-06T06:53:45.165Z,95238.11
2019-03-06T06:56:41.970Z,95248.83
2019-03-06T06:59:25.755Z,95239.97
2019-03-06T07:02:51.799Z,95244.06
2019-03-06T07:05:45.768Z,95244.37
2019-03-06T07:08:24.906Z,95243.26
2019-03-06T07:11:25.537Z,95242.95
2019-03-06T07:14:07.509Z,95249.97
2019-03-06T07:17:11.564Z,95250.01
2019-03-06T07:19:47.289Z,95255.33
2019-03-06T07:22:36.052Z,95255.70
2019-03-06T07:25:23.411Z,95258.25
2019-03-06T07:28:00.419Z,95253.17
2019-03-06T07:30:48.015Z,95259.02
2019-03-06T07:33:49.095Z,95258.65
2019-03-06T07:36:36.607Z,95264.16
2019-03-06T07:39:18.211Z,95267.73
2019-03-06T07:41:58.966Z,95266.35
2019-03-06T07:44:53.653Z,95269.75
2019-03-06T07:47:41.122Z,95261.41
2019-03-06T07:50:45.942Z,95268.05
2019-03-06T07:53:53.721Z,95275.28
2019-03-06T07:56:44.739Z,95277.41
2019-03-06T07:59:14.380Z,95277.77
2019-03-06T08:01:50.904Z,95280.22
2019-03-06T08:04:20.541Z,95283.10
2019-03-06T08:07:00.658Z,95282.83
2019-03-06T08:09:30.286Z,95287.03
2019-03-06T08:12:17.718Z,95288.72
2019-03-06T08:15:21.565Z,95299.69
2019-03-06T08:18:06.304Z,95291.68
2019-03-06T08:20:47.413Z,95299.80
2019-03-06T08:23:26.454Z,95297.36
2019-03-06T08:25:56.202Z,95299.72
2019-03-06T08:28:25.870Z,95297.44
2019-03-06T08:31:00.084Z,95298.90
2019-03-06T08:33:29.826Z,95290.76
2019-03-06T08:35:59.517Z,95295.34
2019-03-06T08:38:29.275Z,95296.45
2019-03-06T08:41:04.287Z,95297.72
2019-03-06T08:43:30.269Z,95297.34
2019-03-06T08:46:07.791Z,95298.81
2019-03-06T08:48:46.893Z,95299.16
2019-03-06T08:51:29.148Z,95307.16
2019-03-06T08:54:19.948Z,95304.61
2019-03-06T08:57:13.384Z,95309.75
2019-03-06T09:03:10.358Z,95309.84
2019-03-06T09:05:54.519Z,95317.58
2019-03-06T09:08:39.830Z,95307.34
2019-03-06T09:11:20.406Z,95316.89
2019-03-06T09:14:07.011Z,95321.44
2019-03-06T09:16:58.447Z,95326.53
2019-03-06T09:19:36.100Z,95327.89
2019-03-06T09:22:42.121Z,95330.18
2019-03-06T09:25:29.177Z,95334.91
2019-03-06T09:28:13.187Z,95333.37
2019-03-06T09:30:49.002Z,95323.16
2019-03-06T09:33:53.017Z,95328.81
2019-03-06T09:36:41.655Z,95336.04
2019-03-06T09:39:33.557Z,95333.29
2019-03-06T09:42:34.505Z,95328.78
2019-03-06T09:45:24.489Z,95326.48
2019-03-06T09:48:31.392Z,95327.45
2019-03-06T09:51:15.107Z,95329.70
2019-03-06T09:54:09.738Z,95330.75
2019-03-06T09:56:58.912Z,95330.64
2019-03-06T09:59:36.377Z,95329.89
2019-03-06T10:02:25.113Z,95330.32
2019-03-06T10:05:09.712Z,95340.51
2019-03-06T10:07:50.244Z,95336.60
2019-03-06T10:10:46.191Z,95323.70
2019-03-06T10:13:16.666Z,95327.50
2019-03-06T10:16:08.740Z,95325.12
2019-03-06T10:18:54.190Z,95319.16
2019-03-06T10:21:25.763Z,95316.78
2019-03-06T10:23:55.620Z,95309.01
2019-03-06T10:26:25.411Z,95307.59
2019-03-06T10:28:54.937Z,95305.09
2019-03-06T10:31:24.585Z,95302.20
2019-03-06T10:33:54.387Z,95301.40
2019-03-06T10:36:24.085Z,95305.39
2019-03-06T10:38:56.446Z,95310.06
2019-03-06T10:41:26.124Z,95310.41
2019-03-06T10:43:55.845Z,95309.92
2019-03-06T10:46:25.535Z,95304.31
2019-03-06T10:48:55.339Z,95299.69
2019-03-06T10:51:25.099Z,95297.38
2019-03-06T10:53:54.868Z,95291.00
2019-03-06T10:56:24.652Z,95289.50
2019-03-06T10:58:54.496Z,95288.13
2019-03-06T11:01:24.498Z,95275.66
2019-03-06T11:04:25.449Z,95274.49
2019-03-06T11:06:55.563Z,95276.24
2019-03-06T11:09:26.456Z,95273.80
2019-03-06T11:11:56.463Z,95262.20
2019-03-06T11:14:28.606Z,95268.05
2019-03-06T11:16:58.436Z,95258.63
2019-03-06T11:19:28.527Z,95265.52
2019-03-06T11:21:58.237Z,95265.27
2019-03-06T11:24:28.076Z,95274.20
2019-03-06T11:26:58.310Z,95269.34
2019-03-06T11:29:27.992Z,95272.19
2019-03-06T11:31:57.714Z,95267.50
2019-03-06T11:34:27.480Z,95264.48
2019-03-06T11:36:58.093Z,95262.30
2019-03-06T11:39:28.064Z,95259.92
2019-03-06T11:41:57.965Z,95257.98
2019-03-06T11:44:27.656Z,95256.03
2019-03-06T11:46:57.222Z,95258.58
2019-03-06T11:49:26.843Z,95252.66
2019-03-06T11:51:56.599Z,95248.78
2019-03-06T11:54:26.126Z,95255.02
2019-03-06T11:56:55.700Z,95249.03
2019-03-06T11:59:25.326Z,95252.34
2019-03-06T12:01:54.941Z,95243.51
2019-03-06T12:04:27.422Z,95254.75
2019-03-06T12:06:57.374Z,95252.05
2019-03-06T12:09:29.467Z,95252.20
2019-03-06T12:11:59.295Z,95250.48
2019-03-06T12:14:28.970Z,95250.14
2019-03-06T12:16:58.748Z,95252.89
2019-03-06T12:19:28.518Z,95259.03
2019-03-06T12:21:58.712Z,95250.38
2019-03-06T12:24:28.419Z,95255.61
2019-03-06T12:26:58.056Z,95249.83
2019-03-06T12:29:27.893Z,95255.09
2019-03-06T12:31:57.770Z,95255.61
2019-03-06T12:34:27.803Z,95247.56
2019-03-06T12:36:57.675Z,95252.75
2019-03-06T12:39:27.268Z,95258.14
2019-03-06T12:41:58.828Z,95250.78
2019-03-06T12:44:28.433Z,95258.15
2019-03-06T12:47:00.741Z,95258.05
2019-03-06T12:49:31.006Z,95258.20
2019-03-06T12:52:00.756Z,95253.39
2019-03-06T12:54:31.398Z,95259.02
2019-03-06T12:57:01.082Z,95264.56
2019-03-06T12:59:31.347Z,95269.57
2019-03-06T13:02:01.085Z,95265.73
2019-03-06T13:04:30.765Z,95264.08
2019-03-06T13:07:00.505Z,95268.84
2019-03-06T13:09:30.171Z,95273.95
2019-03-06T13:12:01.626Z,95278.33
2019-03-06T13:14:31.358Z,95274.84
2019-03-06T13:17:00.948Z,95268.29
2019-03-06T13:19:30.625Z,95267.15
2019-03-06T13:22:00.173Z,95264.62
2019-03-06T13:24:32.130Z,95267.79
2019-03-06T13:27:02.044Z,95267.39
2019-03-06T13:29:31.628Z,95268.00
2019-03-06T13:32:01.316Z,95269.27
2019-03-06T13:34:50.283Z,95266.09
2019-03-06T13:37:14.965Z,95272.64
2019-03-06T13:39:44.808Z,95262.28
2019-03-06T13:42:14.474Z,95268.55
2019-03-06T13:44:44.225Z,95264.14
2019-03-06T13:47:14.038Z,95271.31
2019-03-06T13:49:43.926Z,95268.22
2019-03-06T13:52:13.884Z,95272.08
2019-03-06T13:54:45.607Z,95269.86
2019-03-06T13:57:15.775Z,95273.75
2019-03-06T13:59:45.395Z,95275.97
2019-03-06T14:02:15.103Z,95279.70
2019-03-06T14:04:44.736Z,95283.08
2019-03-06T14:07:14.668Z,95276.77
2019-03-06T14:09:44.276Z,95279.42
2019-03-06T14:12:13.922Z,95272.91
2019-03-06T14:14:43.536Z,95278.35
2019-03-06T14:17:13.329Z,95268.75
2019-03-06T14:19:42.993Z,95279.09
2019-03-06T14:22:12.731Z,95279.53
2019-03-06T14:24:42.405Z,95275.45
2019-03-06T14:27:12.065Z,95272.32
2019-03-06T14:29:41.777Z,95277.58
2019-03-06T14:32:14.870Z,95271.27
2019-03-06T14:34:43.147Z,95275.95
2019-03-06T14:37:12.841Z,95276.17
2019-03-06T14:39:42.542Z,95284.08
2019-03-06T14:42:12.651Z,95285.52
2019-03-06T14:44:42.160Z,95281.33
2019-03-06T14:47:13.287Z,95286.97
2019-03-06T14:49:42.858Z,95288.23
2019-03-06T14:52:12.694Z,95283.28
2019-03-06T14:54:42.294Z,95286.73
2019-03-06T14:57:12.214Z,95288.80
2019-03-06T14:59:42.071Z,95298.61
2019-03-06T15:02:12.096Z,95289.39
2019-03-06T15:04:41.769Z,95295.14
2019-03-06T15:07:11.505Z,95301.73
2019-03-06T15:09:41.184Z,95300.66
2019-03-06T15:12:10.836Z,95298.78
2019-03-06T15:14:40.577Z,95302.89
2019-03-06T15:17:10.263Z,95304.98
2019-03-06T15:19:41.864Z,95308.69
2019-03-06T15:22:11.433Z,95310.55
2019-03-06T15:24:41.893Z,95313.06
2019-03-06T15:27:11.634Z,95308.38
2019-03-06T15:29:44.357Z,95312.77
2019-03-06T15:32:14.088Z,95311.17
2019-03-06T15:34:43.847Z,95316.91
2019-03-06T15:37:13.614Z,95321.52
2019-03-06T15:39:48.730Z,95320.42
2019-03-06T15:42:15.663Z,95314.52
2019-03-06T15:44:45.388Z,95327.53
2019-03-06T15:47:15.190Z,95328.54
2019-03-06T15:49:44.950Z,95337.59
2019-03-06T15:52:14.628Z,95331.16
2019-03-06T15:54:44.370Z,95331.08
2019-03-06T15:57:14.221Z,95337.33
2019-03-06T15:59:43.819Z,95328.28
2019-03-06T16:02:13.728Z,95340.02
2019-03-06T16:04:43.429Z,95350.59
2019-03-06T16:07:13.113Z,95348.91
2019-03-06T16:09:43.029Z,95354.48
2019-03-06T16:12:13.006Z,95353.85
2019-03-06T16:14:42.635Z,95363.64
2019-03-06T16:17:12.207Z,95367.22
2019-03-06T16:19:41.854Z,95375.16
2019-03-06T16:22:11.810Z,95378.12
2019-03-06T16:24:41.502Z,95383.47
2019-03-06T16:27:11.151Z,95393.31
2019-03-06T16:29:40.792Z,95390.03
2019-03-06T16:32:10.361Z,95393.24
2019-03-06T16:34:40.079Z,95401.98
2019-03-06T16:37:09.847Z,95402.33
2019-03-06T16:39:41.618Z,95400.34
2019-03-06T16:42:11.273Z,95405.68
2019-03-06T16:44:40.938Z,95401.15
2019-03-06T16:47:12.052Z,95399.13
2019-03-06T16:49:41.970Z,95406.67
2019-03-06T16:52:12.587Z,95409.81
2019-03-06T16:54:42.204Z,95414.00
2019-03-06T16:57:13.534Z,95418.44
2019-03-06T16:59:43.309Z,95418.83
2019-03-06T17:02:13.840Z,95424.99
2019-03-06T17:04:43.581Z,95430.96
2019-03-06T17:07:13.115Z,95439.21
2019-03-06T17:09:42.729Z,95438.28
2019-03-06T17:12:12.460Z,95443.13
2019-03-06T17:14:42.258Z,95446.00
2019-03-06T17:17:11.957Z,95445.93
2019-03-06T17:19:41.604Z,95448.80
2019-03-06T17:22:11.253Z,95452.41
2019-03-06T17:24:41.078Z,95451.55
2019-03-06T17:27:11.053Z,95454.24
2019-03-06T17:29:41.191Z,95454.05
2019-03-06T17:32:11.131Z,95459.30
2019-03-06T17:34:42.635Z,95455.65
2019-03-06T17:37:12.380Z,95462.74
2019-03-06T17:39:42.056Z,95469.02
2019-03-06T17:42:11.684Z,95471.11
2019-03-06T17:44:41.781Z,95470.06
2019-03-06T17:47:11.527Z,95472.34
2019-03-06T17:49:42.314Z,95470.34
2019-03-06T17:52:11.993Z,95468.02
2019-03-06T17:54:42.526Z,95466.56
2019-03-06T17:57:12.375Z,95465.99
2019-03-06T17:59:43.292Z,95473.88
2019-03-06T18:02:13.316Z,95471.52
2019-03-06T18:04:43.141Z,95473.34
2019-03-06T18:07:12.934Z,95464.14
2019-03-06T18:09:42.724Z,95464.67
2019-03-06T18:12:12.539Z,95469.56
2019-03-06T18:14:42.438Z,95464.71
2019-03-06T18:17:13.576Z,95468.32
2019-03-06T18:19:43.310Z,95462.26
2019-03-06T18:22:12.988Z,95461.45
2019-03-06T18:24:43.195Z,95460.84
2019-03-06T18:27:12.844Z,95461.25
2019-03-06T18:29:42.573Z,95468.97
2019-03-06T18:32:12.474Z,95467.88
2019-03-06T18:34:42.073Z,95469.37
2019-03-06T18:37:11.753Z,95469.14
2019-03-06T18:39:41.705Z,95470.16
2019-03-06T18:42:11.335Z,95479.73
2019-03-06T18:44:41.051Z,95476.42
2019-03-06T18:47:10.762Z,95468.95
2019-03-06T18:49:40.674Z,95470.36
2019-03-06T18:52:11.662Z,95466.25
2019-03-06T18:54:41.420Z,95464.27
2019-03-06T18:57:13.276Z,95468.95
2019-03-06T18:59:42.516Z,95467.66
2019-03-06T19:02:12.346Z,95464.84
2019-03-06T19:04:41.840Z,95470.32
2019-03-06T19:07:11.807Z,95469.60
2019-03-06T19:09:41.318Z,95466.20
2019-03-06T19:12:10.902Z,95464.61
2019-03-06T19:14:42.448Z,95468.67
2019-03-06T19:17:12.149Z,95467.19
2019-03-06T19:19:41.865Z,95472.28
2019-03-06T19:22:11.775Z,95471.98
2019-03-06T19:24:41.303Z,95477.67
2019-03-06T19:27:11.207Z,95477.78
2019-03-06T19:29:40.880Z,95480.15
2019-03-06T19:32:10.430Z,95483.76
2019-03-06T19:34:40.448Z,95484.27
2019-03-06T19:37:10.265Z,95487.73
2019-03-06T19:39:40.059Z,95488.66
2019-03-06T19:42:09.888Z,95495.73
2019-03-06T19:44:39.410Z,95499.22
2019-03-06T19:47:09.430Z,95491.36
2019-03-06T19:49:39.257Z,95507.78
2019-03-06T19:52:08.829Z,95515.05
2019-03-06T19:54:38.458Z,95518.66
2019-03-06T19:57:08.244Z,95518.80
2019-03-06T19:59:37.959Z,95518.66
2019-03-06T20:02:08.053Z,95514.41
2019-03-06T20:04:38.027Z,95514.88
2019-03-06T20:07:09.792Z,95504.22
2019-03-06T20:09:39.475Z,95507.61
2019-03-06T20:12:09.186Z,95528.38
2019-03-06T20:14:39.035Z,95514.20
2019-03-06T20:17:08.756Z,95522.86
2019-03-06T20:19:38.380Z,95524.15
2019-03-06T20:22:07.976Z,95522.95
2019-03-06T20:24:37.523Z,95525.21
2019-03-06T20:27:07.229Z,95520.99
2019-03-06T20:29:37.002Z,95517.61
2019-03-06T20:32:06.565Z,95517.63
2019-03-06T20:34:36.239Z,95519.20
2019-03-06T20:37:05.939Z,95526.17
2019-03-06T20:39:35.656Z,95524.63
2019-03-06T20:42:05.285Z,95518.41
2019-03-06T20:44:34.944Z,95520.27
2019-03-06T20:47:04.524Z,95515.20
2019-03-06T20:49:34.283Z,95531.89
2019-03-06T20:52:04.009Z,95522.70
2019-03-06T20:54:33.626Z,95537.61
2019-03-06T20:57:03.319Z,95538.09
2019-03-06T20:59:32.869Z,95538.59
2019-03-06T21:02:04.263Z,95537.17
2019-03-06T21:04:34.132Z,95548.71
2019-03-06T21:07:03.880Z,95546.84
2019-03-06T21:09:33.593Z,95543.14
2019-03-06T21:12:03.362Z,95538.55
2019-03-06T21:14:32.986Z,95542.34
2019-03-06T21:17:02.515Z,95534.54
2019-03-06T21:19:32.141Z,95541.05
2019-03-06T21:22:01.755Z,95544.62
2019-03-06T21:24:31.483Z,95542.96
2019-03-06T21:27:02.678Z,95544.03
2019-03-06T21:29:32.311Z,95545.91
2019-03-06T21:32:01.908Z,95554.69
2019-03-06T21:34:31.621Z,95549.39
2019-03-06T21:37:01.259Z,95549.78
2019-03-06T21:39:30.878Z,95549.30
2019-03-06T21:42:00.543Z,95541.67
2019-03-06T21:44:30.226Z,95550.59
2019-03-06T21:46:59.930Z,95554.23
2019-03-06T21:49:30.366Z,95541.98
2019-03-06T21:52:02.650Z,95552.61
2019-03-06T21:54:32.303Z,95558.48
2019-03-06T21:57:02.023Z,95559.99
2019-03-06T21:59:31.869Z,95562.09
2019-03-06T22:02:01.554Z,95562.75
2019-03-06T22:04:33.245Z,95559.07
2019-03-06T22:07:02.536Z,95559.07
2019-03-06T22:09:32.209Z,95561.30
2019-03-06T22:12:02.004Z,95555.44
2019-03-06T22:14:31.547Z,95563.78
2019-03-06T22:17:01.200Z,95576.28
2019-03-06T22:19:31.656Z,95578.23
2019-03-06T22:22:01.508Z,95572.09
2019-03-06T22:24:31.146Z,95569.93
2019-03-06T22:27:00.693Z,95572.52
2019-03-06T22:29:30.343Z,95575.72
2019-03-06T22:31:59.947Z,95563.48
2019-03-06T22:34:29.790Z,95565.56
2019-03-06T22:36:59.304Z,95571.53
2019-03-06T22:39:30.103Z,95571.33
2019-03-06T22:41:59.779Z,95573.45
2019-03-06T22:44:29.512Z,95579.00
2019-03-06T22:47:01.438Z,95580.05
2019-03-06T22:49:31.007Z,95577.82
2019-03-06T22:52:00.638Z,95566.27
2019-03-06T22:54:30.421Z,95569.94
2019-03-06T22:57:00.151Z,95562.78
2019-03-06T22:59:29.865Z,95567.18
2019-03-06T23:02:01.916Z,95565.27
2019-03-06T23:04:31.479Z,95569.31
2019-03-06T23:07:01.130Z,95570.73
2019-03-06T23:09:30.876Z,95576.20
2019-03-06T23:12:00.493Z,95573.08
2019-03-06T23:14:31.561Z,95575.11
2019-03-06T23:17:01.123Z,95557.95
2019-03-06T23:19:30.814Z,95557.59
2019-03-06T23:22:00.467Z,95554.14
2019-03-06T23:24:30.179Z,95554.14
2019-03-06T23:27:01.767Z,95556.27
2019-03-06T23:29:33.526Z,95556.27
2019-03-06T23:32:03.187Z,95556.84
2019-03-06T23:34:32.797Z,95556.84
2019-03-06T23:37:02.572Z,95557.52
2019-03-06T23:39:32.163Z,95558.50
2019-03-06T23:42:02.995Z,95554.06
2019-03-06T23:44:32.735Z,95554.06
2019-03-06T23:47:02.394Z,95546.12
2019-03-06T23:49:32.094Z,95546.12
2019-03-06T23:52:06.839Z,95562.08
2019-03-06T23:54:36.357Z,95550.62
2019-03-06T23:57:06.119Z,95550.62
2019-03-06T23:59:36.503Z,95553.74
